createdAt,value
2023-05-25T00:00:29.429Z,22.68
2023-05-25T00:01:29.472Z,22.68
2023-05-25T00:02:29.685Z,22.68
2023-05-25T00:03:29.701Z,22.68
2023-05-25T00:04:29.687Z,22.68
2023-05-25T00:05:29.694Z,22.67
2023-05-25T00:06:29.824Z,22.67
2023-05-25T00:07:29.812Z,22.67
2023-05-25T00:08:29.970Z,22.66
2023-05-25T00:09:29.938Z,22.66
2023-05-25T00:10:30.029Z,22.66
2023-05-25T00:11:30.066Z,22.66
2023-05-25T00:12:30.094Z,22.66
2023-05-25T00:13:30.161Z,22.66
2023-05-25T00:14:30.230Z,22.67
2023-05-25T00:15:30.269Z,22.66
2023-05-25T00:16:30.353Z,22.66
2023-05-25T00:17:30.510Z,22.66
2023-05-25T00:18:30.464Z,22.66
2023-05-25T00:19:30.524Z,22.66
2023-05-25T00:20:30.585Z,22.66
2023-05-25T00:21:30.632Z,22.66
2023-05-25T00:22:30.680Z,22.66
2023-05-25T00:23:30.736Z,22.65
2023-05-25T00:24:30.820Z,22.66
2023-05-25T00:25:30.880Z,22.65
2023-05-25T00:26:30.930Z,22.66
2023-05-25T00:27:30.972Z,22.66
2023-05-25T00:28:31.030Z,22.65
2023-05-25T00:29:31.121Z,22.65
2023-05-25T00:30:31.161Z,22.65
2023-05-25T00:31:31.260Z,22.65
2023-05-25T00:32:31.300Z,22.64
2023-05-25T00:33:31.345Z,22.65
2023-05-25T00:34:31.405Z,22.64
2023-05-25T00:35:31.432Z,22.64
2023-05-25T00:36:31.519Z,22.64
2023-05-25T00:37:31.557Z,22.64
2023-05-25T00:38:31.642Z,22.64
2023-05-25T00:39:31.662Z,22.64
2023-05-25T00:40:31.749Z,22.64
2023-05-25T00:41:31.836Z,22.64
2023-05-25T00:42:31.887Z,22.64
2023-05-25T00:43:31.925Z,22.64
2023-05-25T00:44:31.971Z,22.64
2023-05-25T00:45:32.039Z,22.63
2023-05-25T00:46:32.152Z,22.63
2023-05-25T00:47:32.196Z,22.63
2023-05-25T00:48:32.221Z,22.64
2023-05-25T00:49:32.256Z,22.63
2023-05-25T00:50:32.306Z,22.63
2023-05-25T00:51:32.376Z,22.62
2023-05-25T00:52:32.445Z,22.62
2023-05-25T00:53:32.480Z,22.63
2023-05-25T00:54:32.559Z,22.62
2023-05-25T00:55:32.621Z,22.62
2023-05-25T00:56:32.698Z,22.62
2023-05-25T00:57:32.729Z,22.62
2023-05-25T00:58:32.804Z,22.62
2023-05-25T00:59:32.864Z,22.61
2023-05-25T01:00:32.942Z,22.61
2023-05-25T01:01:33.017Z,22.62
2023-05-25T01:02:33.181Z,22.62
2023-05-25T01:03:33.180Z,22.61
2023-05-25T01:04:33.153Z,22.61
2023-05-25T01:05:33.222Z,22.62
2023-05-25T01:06:33.276Z,22.62
2023-05-25T01:07:33.351Z,22.62
2023-05-25T01:08:33.408Z,22.62
2023-05-25T01:09:33.481Z,22.61
2023-05-25T01:10:33.604Z,22.62
2023-05-25T01:11:33.630Z,22.61
2023-05-25T01:12:33.741Z,22.61
2023-05-25T01:13:33.715Z,22.61
2023-05-25T01:14:33.766Z,22.61
2023-05-25T01:15:33.847Z,22.61
2023-05-25T01:16:33.926Z,22.61
2023-05-25T01:17:33.960Z,22.61
2023-05-25T01:18:34.046Z,22.60
2023-05-25T01:19:34.084Z,22.60
2023-05-25T01:20:34.214Z,22.60
2023-05-25T01:21:34.214Z,22.60
2023-05-25T01:22:34.351Z,22.60
2023-05-25T01:23:34.344Z,22.60
2023-05-25T01:24:34.402Z,22.60
2023-05-25T01:25:34.466Z,22.60
2023-05-25T01:26:34.528Z,22.60
2023-05-25T01:27:34.628Z,22.59
2023-05-25T01:28:34.646Z,22.60
2023-05-25T01:29:34.707Z,22.60
2023-05-25T01:30:34.771Z,22.60
2023-05-25T01:31:34.906Z,22.60
2023-05-25T01:32:34.954Z,22.60
2023-05-25T01:33:34.963Z,22.59
2023-05-25T01:34:35.021Z,22.60
2023-05-25T01:35:35.078Z,22.60
2023-05-25T01:36:35.149Z,22.59
2023-05-25T01:37:35.205Z,22.59
2023-05-25T01:38:35.299Z,22.59
2023-05-25T01:39:35.337Z,22.59
2023-05-25T01:40:35.400Z,22.58
2023-05-25T01:41:35.473Z,22.58
2023-05-25T01:42:35.566Z,22.58
2023-05-25T01:43:35.606Z,22.58
2023-05-25T01:44:35.643Z,22.59
2023-05-25T01:45:35.764Z,22.59
2023-05-25T01:46:35.858Z,22.59
2023-05-25T01:47:35.911Z,22.60
2023-05-25T01:48:35.907Z,22.59
2023-05-25T01:49:35.947Z,22.59
2023-05-25T01:50:36.030Z,22.59
2023-05-25T01:51:36.101Z,22.58
2023-05-25T01:52:36.157Z,22.58
2023-05-25T01:53:36.224Z,22.58
2023-05-25T01:54:36.280Z,22.58
2023-05-25T01:55:36.343Z,22.57
2023-05-25T01:56:36.414Z,22.58
2023-05-25T01:57:36.473Z,22.58
2023-05-25T01:58:36.520Z,22.58
2023-05-25T01:59:36.591Z,22.58
2023-05-25T02:00:36.668Z,22.58
2023-05-25T02:01:36.777Z,22.58
2023-05-25T02:02:36.821Z,22.59
2023-05-25T02:03:36.831Z,22.58
2023-05-25T02:04:36.890Z,22.58
2023-05-25T02:05:36.951Z,22.58
2023-05-25T02:06:37.005Z,22.58
2023-05-25T02:07:37.065Z,22.57
2023-05-25T02:08:37.146Z,22.57
2023-05-25T02:09:37.182Z,22.57
2023-05-25T02:10:37.241Z,22.58
2023-05-25T02:11:37.315Z,22.58
2023-05-25T02:12:37.388Z,22.58
2023-05-25T02:13:37.484Z,22.58
2023-05-25T02:14:37.513Z,22.57
2023-05-25T02:15:37.620Z,22.57
2023-05-25T02:16:37.735Z,22.57
2023-05-25T02:17:37.834Z,22.56
2023-05-25T02:18:37.777Z,22.57
2023-05-25T02:19:37.817Z,22.56
2023-05-25T02:20:37.969Z,22.57
2023-05-25T02:21:37.938Z,22.57
2023-05-25T02:22:38.096Z,22.57
2023-05-25T02:23:38.053Z,22.57
2023-05-25T02:24:38.129Z,22.57
2023-05-25T02:25:38.189Z,22.57
2023-05-25T02:26:38.267Z,22.57
2023-05-25T02:27:38.295Z,22.57
2023-05-25T02:28:38.385Z,22.56
2023-05-25T02:29:38.448Z,22.56
2023-05-25T02:30:38.492Z,22.56
2023-05-25T02:31:38.589Z,22.56
2023-05-25T02:32:38.641Z,22.56
2023-05-25T02:33:38.665Z,22.56
2023-05-25T02:34:38.733Z,22.56
2023-05-25T02:35:38.879Z,22.56
2023-05-25T02:36:38.846Z,22.56
2023-05-25T02:37:38.928Z,22.56
2023-05-25T02:38:38.992Z,22.56
2023-05-25T02:39:39.032Z,22.56
2023-05-25T02:40:39.110Z,22.55
2023-05-25T02:41:39.206Z,22.56
2023-05-25T02:42:39.233Z,22.55
2023-05-25T02:43:39.330Z,22.55
2023-05-25T02:44:39.345Z,22.55
2023-05-25T02:45:39.403Z,22.55
2023-05-25T02:46:39.472Z,22.55
2023-05-25T02:47:39.531Z,22.54
2023-05-25T02:48:39.525Z,22.54
2023-05-25T02:49:39.606Z,22.54
2023-05-25T02:50:39.652Z,22.55
2023-05-25T02:51:39.732Z,22.54
2023-05-25T02:52:39.780Z,22.54
2023-05-25T02:53:39.857Z,22.55
2023-05-25T02:54:39.898Z,22.55
2023-05-25T02:55:39.955Z,22.55
2023-05-25T02:56:40.015Z,22.55
2023-05-25T02:57:40.049Z,22.54
2023-05-25T02:58:40.137Z,22.55
2023-05-25T02:59:40.201Z,22.54
2023-05-25T03:00:40.281Z,22.54
2023-05-25T03:01:40.357Z,22.54
2023-05-25T03:02:40.377Z,22.55
2023-05-25T03:03:40.425Z,22.54
2023-05-25T03:04:40.462Z,22.54
2023-05-25T03:05:40.505Z,22.54
2023-05-25T03:06:40.629Z,22.54
2023-05-25T03:07:40.603Z,22.54
2023-05-25T03:08:40.697Z,22.55
2023-05-25T03:09:40.722Z,22.54
2023-05-25T03:10:40.807Z,22.54
2023-05-25T03:11:40.882Z,22.54
2023-05-25T03:12:40.938Z,22.54
2023-05-25T03:13:40.996Z,22.54
2023-05-25T03:14:41.083Z,22.53
2023-05-25T03:15:41.168Z,22.54
2023-05-25T03:16:41.221Z,22.54
2023-05-25T03:17:41.264Z,22.54
2023-05-25T03:18:41.293Z,22.54
2023-05-25T03:19:41.373Z,22.54
2023-05-25T03:20:41.523Z,22.54
2023-05-25T03:21:41.509Z,22.53
2023-05-25T03:22:41.576Z,22.53
2023-05-25T03:23:41.614Z,22.53
2023-05-25T03:24:41.922Z,22.53
2023-05-25T03:25:41.771Z,22.54
2023-05-25T03:26:41.744Z,22.53
2023-05-25T03:27:41.801Z,22.54
2023-05-25T03:28:41.883Z,22.53
2023-05-25T03:29:41.944Z,22.53
2023-05-25T03:30:41.977Z,22.53
2023-05-25T03:31:42.108Z,22.53
2023-05-25T03:32:42.088Z,22.53
2023-05-25T03:33:42.106Z,22.53
2023-05-25T03:34:42.174Z,22.52
2023-05-25T03:35:42.531Z,22.53
2023-05-25T03:36:42.236Z,22.52
2023-05-25T03:37:42.292Z,22.53
2023-05-25T03:38:42.348Z,22.53
2023-05-25T03:39:42.426Z,22.54
2023-05-25T03:40:42.475Z,22.54
2023-05-25T03:41:42.523Z,22.53
2023-05-25T03:42:42.593Z,22.53
2023-05-25T03:43:42.675Z,22.53
2023-05-25T03:44:42.729Z,22.53
2023-05-25T03:45:42.940Z,22.54
2023-05-25T03:46:43.099Z,22.53
2023-05-25T03:47:42.931Z,22.53
2023-05-25T03:48:42.933Z,22.53
2023-05-25T03:49:43.004Z,22.53
2023-05-25T03:50:43.053Z,22.53
2023-05-25T03:51:43.114Z,22.53
2023-05-25T03:52:43.146Z,22.52
2023-05-25T03:53:43.197Z,22.52
2023-05-25T03:54:43.255Z,22.53
2023-05-25T03:55:43.640Z,22.52
2023-05-25T03:56:43.361Z,22.53
2023-05-25T03:57:43.409Z,22.52
2023-05-25T03:58:43.473Z,22.52
2023-05-25T03:59:43.540Z,22.52
2023-05-25T04:00:43.575Z,22.53
2023-05-25T04:01:43.634Z,22.53
2023-05-25T04:02:43.875Z,22.53
2023-05-25T04:03:44.017Z,22.53
2023-05-25T04:04:43.851Z,22.54
2023-05-25T04:05:44.014Z,22.53
2023-05-25T04:06:43.951Z,22.54
2023-05-25T04:07:44.002Z,22.53
2023-05-25T04:08:44.085Z,22.54
2023-05-25T04:09:44.105Z,22.54
2023-05-25T04:10:44.160Z,22.54
2023-05-25T04:11:44.202Z,22.54
2023-05-25T04:12:44.264Z,22.54
2023-05-25T04:13:44.315Z,22.54
2023-05-25T04:14:44.379Z,22.54
2023-05-25T04:15:44.605Z,22.55
2023-05-25T04:16:44.582Z,22.55
2023-05-25T04:17:44.583Z,22.55
2023-05-25T04:18:44.637Z,22.54
2023-05-25T04:19:44.676Z,22.54
2023-05-25T04:20:44.756Z,22.54
2023-05-25T04:21:44.817Z,22.54
2023-05-25T04:22:44.869Z,22.54
2023-05-25T04:23:44.929Z,22.53
2023-05-25T04:24:45.113Z,22.54
2023-05-25T04:25:45.211Z,22.54
2023-05-25T04:26:45.116Z,22.54
2023-05-25T04:27:45.160Z,22.55
2023-05-25T04:28:45.242Z,22.55
2023-05-25T04:29:45.268Z,22.54
2023-05-25T04:30:45.348Z,22.55
2023-05-25T04:31:45.464Z,22.54
2023-05-25T04:32:45.581Z,22.55
2023-05-25T04:33:45.512Z,22.55
2023-05-25T04:34:45.576Z,22.55
2023-05-25T04:35:45.877Z,22.55
2023-05-25T04:36:45.665Z,22.55
2023-05-25T04:37:45.736Z,22.55
2023-05-25T04:38:45.788Z,22.55
2023-05-25T04:39:45.993Z,22.54
2023-05-25T04:40:45.940Z,22.54
2023-05-25T04:41:45.946Z,22.53
2023-05-25T04:42:46.007Z,22.54
2023-05-25T04:44:00.922Z,22.55
2023-05-25T04:44:47.092Z,22.54
2023-05-25T04:45:46.448Z,22.54
2023-05-25T04:46:46.072Z,22.54
2023-05-25T04:47:46.106Z,22.54
2023-05-25T04:48:46.043Z,22.54
2023-05-25T04:49:46.083Z,22.54
2023-05-25T04:50:46.035Z,22.54
2023-05-25T04:51:46.078Z,22.54
2023-05-25T04:52:46.100Z,22.54
2023-05-25T04:53:46.153Z,22.54
2023-05-25T04:54:46.188Z,22.54
2023-05-25T04:55:46.572Z,22.54
2023-05-25T04:56:46.312Z,22.54
2023-05-25T04:57:46.363Z,22.54
2023-05-25T04:58:46.404Z,22.54
2023-05-25T04:59:46.463Z,22.55
2023-05-25T05:00:46.639Z,22.54
2023-05-25T05:01:46.671Z,22.55
2023-05-25T05:02:46.771Z,22.55
2023-05-25T05:03:46.759Z,22.55
2023-05-25T05:04:46.795Z,22.55
2023-05-25T05:05:46.879Z,22.55
2023-05-25T05:06:46.915Z,22.55
2023-05-25T05:07:46.994Z,22.55
2023-05-25T05:08:47.077Z,22.56
2023-05-25T05:09:47.096Z,22.56
2023-05-25T05:10:47.132Z,22.55
2023-05-25T05:11:47.221Z,22.57
2023-05-25T05:12:47.272Z,22.56
2023-05-25T05:13:47.352Z,22.56
2023-05-25T05:14:47.403Z,22.57
2023-05-25T05:15:47.469Z,22.57
2023-05-25T05:16:47.539Z,22.57
2023-05-25T05:17:47.611Z,22.56
2023-05-25T05:18:47.631Z,22.56
2023-05-25T05:19:47.682Z,22.57
2023-05-25T05:20:47.767Z,22.57
2023-05-25T05:21:47.814Z,22.58
2023-05-25T05:22:47.861Z,22.57
2023-05-25T05:23:47.930Z,22.57
2023-05-25T05:24:48.005Z,22.58
2023-05-25T05:25:48.054Z,22.59
2023-05-25T05:26:56.118Z,22.58
2023-05-25T05:27:49.119Z,22.58
2023-05-25T05:28:48.440Z,22.60
2023-05-25T05:29:48.123Z,22.61
2023-05-25T05:30:48.066Z,22.60
2023-05-25T05:31:48.209Z,22.64
2023-05-25T05:32:48.095Z,22.66
2023-05-25T05:33:48.465Z,22.71
2023-05-25T05:34:48.112Z,22.75
2023-05-25T05:35:48.118Z,22.79
2023-05-25T05:36:57.283Z,22.84
2023-05-25T05:37:49.195Z,22.89
2023-05-25T05:38:48.198Z,22.93
2023-05-25T05:39:48.173Z,22.96
2023-05-25T05:40:48.188Z,23.00
2023-05-25T05:41:48.166Z,23.02
2023-05-25T05:42:48.132Z,23.05
2023-05-25T05:43:48.517Z,23.06
2023-05-25T05:44:48.136Z,23.09
2023-05-25T05:45:48.131Z,23.11
2023-05-25T05:46:48.160Z,23.12
2023-05-25T05:47:48.168Z,23.13
2023-05-25T05:48:48.087Z,23.15
2023-05-25T05:49:48.112Z,23.17
2023-05-25T05:50:48.138Z,23.19
2023-05-25T05:51:48.175Z,23.21
2023-05-25T05:52:48.197Z,23.22
2023-05-25T05:53:48.168Z,23.24
2023-05-25T05:54:48.191Z,23.25
2023-05-25T05:55:51.257Z,23.26
2023-05-25T05:56:48.205Z,23.27
2023-05-25T05:57:48.202Z,23.26
2023-05-25T05:58:48.192Z,23.27
2023-05-25T05:59:48.178Z,23.28
2023-05-25T06:00:48.189Z,23.30
2023-05-25T06:01:48.201Z,23.31
2023-05-25T06:02:48.275Z,23.32
2023-05-25T06:03:48.175Z,23.34
2023-05-25T06:04:48.160Z,23.35
2023-05-25T06:05:48.319Z,23.37
2023-05-25T06:06:48.136Z,23.39
2023-05-25T06:07:48.126Z,23.39
2023-05-25T06:08:48.120Z,23.41
2023-05-25T06:09:48.168Z,23.42
2023-05-25T06:10:48.132Z,23.43
2023-05-25T06:11:48.137Z,23.44
2023-05-25T06:12:48.093Z,23.45
2023-05-25T06:13:48.102Z,23.46
2023-05-25T06:14:48.096Z,23.47
2023-05-25T06:15:48.077Z,23.48
2023-05-25T06:16:48.129Z,23.49
2023-05-25T06:17:48.114Z,23.50
2023-05-25T06:18:48.053Z,23.52
2023-05-25T06:19:48.061Z,23.54
2023-05-25T06:20:48.098Z,23.56
2023-05-25T06:21:48.069Z,23.57
2023-05-25T06:22:48.053Z,23.57
2023-05-25T06:23:48.037Z,23.60
2023-05-25T06:24:48.026Z,23.60
2023-05-25T06:25:48.037Z,23.62
2023-05-25T06:26:48.003Z,23.64
2023-05-25T06:27:47.995Z,23.66
2023-05-25T06:28:48.449Z,23.66
2023-05-25T06:29:47.991Z,23.67
2023-05-25T06:30:48.002Z,23.70
2023-05-25T06:31:48.002Z,23.72
2023-05-25T06:32:48.034Z,23.74
2023-05-25T06:33:48.539Z,23.77
2023-05-25T06:34:47.979Z,23.81
2023-05-25T06:35:48.100Z,23.84
2023-05-25T06:36:47.948Z,23.88
2023-05-25T06:37:47.951Z,23.92
2023-05-25T06:38:47.982Z,23.96
2023-05-25T06:39:47.954Z,23.98
2023-05-25T06:40:47.936Z,24.02
2023-05-25T06:41:47.948Z,24.06
2023-05-25T06:42:47.952Z,24.09
2023-05-25T06:43:48.047Z,24.11
2023-05-25T06:44:48.089Z,24.13
2023-05-25T06:45:48.316Z,24.18
2023-05-25T06:46:48.447Z,24.22
2023-05-25T06:47:48.310Z,24.24
2023-05-25T06:48:48.364Z,24.26
2023-05-25T06:49:48.385Z,24.28
2023-05-25T06:50:48.480Z,24.30
2023-05-25T06:51:48.539Z,24.33
2023-05-25T06:52:48.568Z,24.34
2023-05-25T06:53:48.975Z,24.35
2023-05-25T06:54:48.679Z,24.39
2023-05-25T06:55:48.747Z,24.43
2023-05-25T06:56:48.877Z,24.44
2023-05-25T06:57:48.887Z,24.48
2023-05-25T06:58:49.001Z,24.51
2023-05-25T06:59:48.958Z,24.54
2023-05-25T07:00:49.026Z,24.58
2023-05-25T07:01:49.139Z,24.60
2023-05-25T07:02:49.162Z,24.64
2023-05-25T07:03:49.497Z,24.68
2023-05-25T07:04:49.220Z,24.72
2023-05-25T07:05:49.204Z,24.76
2023-05-25T07:06:49.250Z,24.79
2023-05-25T07:07:49.320Z,24.84
2023-05-25T07:08:49.471Z,24.87
2023-05-25T07:09:49.356Z,24.91
2023-05-25T07:10:50.391Z,24.94
2023-05-25T07:11:49.398Z,24.96
2023-05-25T07:12:49.406Z,25.00
2023-05-25T07:13:49.494Z,25.00
2023-05-25T07:14:49.471Z,25.02
2023-05-25T07:15:50.099Z,25.03
2023-05-25T07:16:49.516Z,25.06
2023-05-25T07:17:49.587Z,25.06
2023-05-25T07:18:49.971Z,25.08
2023-05-25T07:19:49.551Z,25.09
2023-05-25T07:20:49.606Z,25.13
2023-05-25T07:21:49.584Z,25.14
2023-05-25T07:22:49.626Z,25.14
2023-05-25T07:23:49.990Z,25.12
2023-05-25T07:24:49.618Z,25.16
2023-05-25T07:25:49.627Z,25.18
2023-05-25T07:26:49.683Z,25.15
2023-05-25T07:27:49.636Z,25.16
2023-05-25T07:28:49.988Z,25.15
2023-05-25T07:29:49.686Z,25.15
2023-05-25T07:30:49.763Z,25.13
2023-05-25T07:31:49.733Z,25.13
2023-05-25T07:32:49.786Z,25.15
2023-05-25T07:33:49.713Z,25.09
2023-05-25T07:34:49.910Z,25.03
2023-05-25T07:35:49.820Z,25.01
2023-05-25T07:36:49.775Z,24.97
2023-05-25T07:37:49.775Z,24.97
2023-05-25T07:38:49.989Z,24.99
2023-05-25T07:39:49.819Z,25.01
2023-05-25T07:40:49.828Z,25.02
2023-05-25T07:41:49.862Z,25.02
2023-05-25T07:42:49.874Z,25.05
2023-05-25T07:43:50.004Z,25.06
2023-05-25T07:44:49.900Z,25.06
2023-05-25T07:45:50.173Z,25.06
2023-05-25T07:46:49.982Z,25.06
2023-05-25T07:47:49.982Z,25.05
2023-05-25T07:48:49.938Z,25.04
2023-05-25T07:49:49.959Z,25.02
2023-05-25T07:50:49.986Z,25.00
2023-05-25T07:51:50.003Z,24.99
2023-05-25T07:52:50.113Z,24.99
2023-05-25T07:53:50.015Z,24.98
2023-05-25T07:54:50.077Z,25.01
2023-05-25T07:55:50.038Z,25.00
2023-05-25T07:56:50.048Z,25.00
2023-05-25T07:57:50.044Z,25.00
2023-05-25T07:58:50.504Z,25.00
2023-05-25T07:59:50.063Z,25.00
2023-05-25T08:00:50.136Z,25.02
2023-05-25T08:01:51.088Z,25.01
2023-05-25T08:02:50.339Z,25.02
2023-05-25T08:03:50.668Z,25.02
2023-05-25T08:04:50.216Z,25.02
2023-05-25T08:05:50.172Z,25.01
2023-05-25T08:06:50.176Z,25.02
2023-05-25T08:07:50.288Z,25.02
2023-05-25T08:08:50.530Z,25.00
2023-05-25T08:09:50.211Z,24.99
2023-05-25T08:10:50.219Z,24.99
2023-05-25T08:11:51.305Z,24.97
2023-05-25T08:12:51.718Z,24.99
2023-05-25T08:13:50.501Z,25.00
2023-05-25T08:14:50.312Z,25.00
2023-05-25T08:15:50.296Z,25.00
2023-05-25T08:16:50.327Z,25.01
2023-05-25T08:17:50.376Z,25.02
2023-05-25T08:18:50.506Z,25.02
2023-05-25T08:19:50.394Z,25.01
2023-05-25T08:20:50.385Z,24.98
2023-05-25T08:21:50.402Z,24.96
2023-05-25T08:22:50.512Z,24.91
2023-05-25T08:23:50.513Z,24.90
2023-05-25T08:24:50.492Z,24.89
2023-05-25T08:25:50.522Z,24.89
2023-05-25T08:26:54.745Z,24.87
2023-05-25T08:27:50.526Z,24.84
2023-05-25T08:28:51.011Z,24.81
2023-05-25T08:29:50.511Z,24.78
2023-05-25T08:30:50.561Z,24.77
2023-05-25T08:31:50.476Z,24.75
2023-05-25T08:32:50.560Z,24.72
2023-05-25T08:33:50.496Z,24.69
2023-05-25T08:34:50.484Z,24.67
2023-05-25T08:35:50.473Z,24.63
2023-05-25T08:36:50.569Z,24.60
2023-05-25T08:37:50.478Z,24.55
2023-05-25T08:38:50.492Z,24.54
2023-05-25T08:39:50.468Z,24.52
2023-05-25T08:40:50.427Z,24.54
2023-05-25T08:41:50.439Z,24.56
2023-05-25T08:42:50.434Z,24.54
2023-05-25T08:43:50.463Z,24.55
2023-05-25T08:44:50.472Z,24.56
2023-05-25T08:45:50.700Z,24.55
2023-05-25T08:46:50.731Z,24.57
2023-05-25T08:47:50.698Z,24.59
2023-05-25T08:48:50.777Z,24.61
2023-05-25T08:49:51.126Z,24.66
2023-05-25T08:50:50.916Z,24.71
2023-05-25T08:51:50.788Z,24.73
2023-05-25T08:52:50.795Z,24.73
2023-05-25T08:53:50.829Z,24.75
2023-05-25T08:54:50.876Z,24.77
2023-05-25T08:55:50.882Z,24.79
2023-05-25T08:56:50.927Z,24.77
2023-05-25T08:57:50.973Z,24.79
2023-05-25T08:58:51.021Z,24.82
2023-05-25T08:59:50.999Z,24.83
2023-05-25T09:00:51.056Z,24.85
2023-05-25T09:01:51.060Z,24.88
2023-05-25T09:02:51.287Z,24.90
2023-05-25T09:03:51.127Z,24.91
2023-05-25T09:04:51.109Z,24.89
2023-05-25T09:05:51.145Z,24.89
2023-05-25T09:07:05.880Z,24.91
2023-05-25T09:07:52.137Z,24.90
2023-05-25T09:08:51.140Z,24.92
2023-05-25T09:09:51.116Z,24.93
2023-05-25T09:10:51.115Z,24.94
2023-05-25T09:11:51.108Z,24.94
2023-05-25T09:12:51.702Z,24.95
2023-05-25T09:13:51.111Z,24.96
2023-05-25T09:14:51.101Z,24.97
2023-05-25T09:15:51.081Z,24.99
2023-05-25T09:16:51.128Z,24.99
2023-05-25T09:17:51.059Z,25.01
2023-05-25T09:18:51.598Z,25.02
2023-05-25T09:19:51.101Z,25.02
2023-05-25T09:20:51.451Z,25.03
2023-05-25T09:21:54.941Z,25.05
2023-05-25T09:22:52.059Z,25.05
2023-05-25T09:23:51.544Z,25.06
2023-05-25T09:24:51.006Z,25.07
2023-05-25T09:25:51.017Z,25.07
2023-05-25T09:26:51.021Z,25.06
2023-05-25T09:27:51.008Z,25.03
2023-05-25T09:28:51.040Z,25.00
2023-05-25T09:29:51.148Z,24.96
2023-05-25T09:30:50.988Z,24.93
2023-05-25T09:31:51.012Z,24.92
2023-05-25T09:32:50.991Z,24.90
2023-05-25T09:33:51.170Z,24.92
2023-05-25T09:34:50.970Z,24.95
2023-05-25T09:35:50.974Z,24.97
2023-05-25T09:36:51.238Z,24.99
2023-05-25T09:37:51.263Z,25.02
2023-05-25T09:38:51.098Z,25.03
2023-05-25T09:39:51.016Z,25.05
2023-05-25T09:40:50.948Z,25.07
2023-05-25T09:41:51.064Z,25.09
2023-05-25T09:42:50.897Z,25.09
2023-05-25T09:44:50.912Z,25.13
2023-05-25T09:45:50.904Z,25.14
2023-05-25T09:46:51.062Z,25.17
2023-05-25T09:47:50.939Z,25.20
2023-05-25T09:48:51.079Z,25.22
2023-05-25T09:49:50.867Z,25.24
2023-05-25T09:50:51.018Z,25.25
2023-05-25T09:51:50.896Z,25.27
2023-05-25T09:52:50.963Z,25.29
2023-05-25T09:53:50.847Z,25.31
2023-05-25T09:54:50.835Z,25.33
2023-05-25T09:55:54.201Z,25.36
2023-05-25T09:56:50.811Z,25.37
2023-05-25T09:57:50.842Z,25.38
2023-05-25T09:58:50.795Z,25.41
2023-05-25T09:59:51.038Z,25.44
2023-05-25T10:00:50.853Z,25.47
2023-05-25T10:01:50.801Z,25.48
2023-05-25T10:02:50.800Z,25.49
2023-05-25T10:04:02.948Z,25.51
2023-05-25T10:04:52.157Z,25.52
2023-05-25T10:05:50.750Z,25.53
2023-05-25T10:06:50.750Z,25.55
2023-05-25T10:07:50.736Z,25.57
2023-05-25T10:08:50.767Z,25.58
2023-05-25T10:09:50.737Z,25.60
2023-05-25T10:10:50.722Z,25.64
2023-05-25T10:11:50.756Z,25.64
2023-05-25T10:12:50.798Z,25.66
2023-05-25T10:13:50.872Z,25.68
2023-05-25T10:14:50.980Z,25.67
2023-05-25T10:15:51.007Z,25.68
2023-05-25T10:16:51.034Z,25.69
2023-05-25T10:17:51.127Z,25.71
2023-05-25T10:18:51.154Z,25.71
2023-05-25T10:19:51.640Z,25.72
2023-05-25T10:20:51.336Z,25.73
2023-05-25T10:21:51.320Z,25.66
2023-05-25T10:22:51.379Z,25.65
2023-05-25T10:23:51.423Z,25.68
2023-05-25T10:24:51.573Z,25.69
2023-05-25T10:25:51.548Z,25.71
2023-05-25T10:26:51.585Z,25.72
2023-05-25T10:27:52.294Z,25.72
2023-05-25T10:28:51.826Z,25.71
2023-05-25T10:29:52.066Z,25.70
2023-05-25T10:30:51.920Z,25.69
2023-05-25T10:31:52.070Z,25.70
2023-05-25T10:32:52.044Z,25.70
2023-05-25T10:33:52.712Z,25.69
2023-05-25T10:34:52.165Z,25.68
2023-05-25T10:36:52.201Z,25.66
2023-05-25T10:37:52.216Z,25.65
2023-05-25T10:38:52.185Z,25.65
2023-05-25T10:39:52.193Z,25.64
2023-05-25T10:40:52.196Z,25.62
2023-05-25T10:41:52.159Z,25.60
2023-05-25T10:42:52.177Z,25.58
2023-05-25T10:43:52.167Z,25.55
2023-05-25T10:44:52.564Z,25.54
2023-05-25T10:45:52.156Z,25.53
2023-05-25T10:46:52.145Z,25.52
2023-05-25T10:47:52.187Z,25.52
2023-05-25T10:48:52.126Z,25.51
2023-05-25T10:49:52.555Z,25.51
2023-05-25T10:50:52.156Z,25.51
2023-05-25T10:51:52.184Z,25.51
2023-05-25T10:52:52.249Z,25.50
2023-05-25T10:53:52.297Z,25.50
2023-05-25T10:54:52.352Z,25.49
2023-05-25T10:55:52.419Z,25.50
2023-05-25T10:56:52.482Z,25.50
2023-05-25T10:57:52.525Z,25.50
2023-05-25T10:58:53.637Z,25.50
2023-05-25T10:59:53.081Z,25.50
2023-05-25T11:00:52.751Z,25.50
2023-05-25T11:01:52.841Z,25.51
2023-05-25T11:02:52.846Z,25.51
2023-05-25T11:03:52.882Z,25.50
2023-05-25T11:04:53.069Z,25.50
2023-05-25T11:05:53.003Z,25.50
2023-05-25T11:06:53.044Z,25.49
2023-05-25T11:07:53.086Z,25.49
2023-05-25T11:08:53.100Z,25.50
2023-05-25T11:09:53.167Z,25.49
2023-05-25T11:10:53.239Z,25.50
2023-05-25T11:11:53.287Z,25.50
2023-05-25T11:12:53.294Z,25.50
2023-05-25T11:13:53.316Z,25.49
2023-05-25T11:14:53.352Z,25.50
2023-05-25T11:15:53.454Z,25.51
2023-05-25T11:16:53.493Z,25.50
2023-05-25T11:17:53.575Z,25.47
2023-05-25T11:18:53.559Z,25.44
2023-05-25T11:19:53.702Z,25.41
2023-05-25T11:20:53.664Z,25.39
2023-05-25T11:21:53.715Z,25.37
2023-05-25T11:22:53.745Z,25.36
2023-05-25T11:23:53.781Z,25.34
2023-05-25T11:24:53.791Z,25.32
2023-05-25T11:25:53.820Z,25.31
2023-05-25T11:26:53.820Z,25.30
2023-05-25T11:27:53.861Z,25.29
2023-05-25T11:28:53.875Z,25.27
2023-05-25T11:29:53.888Z,25.26
2023-05-25T11:30:53.912Z,25.25
2023-05-25T11:31:53.878Z,25.24
2023-05-25T11:32:53.920Z,25.23
2023-05-25T11:33:53.838Z,25.22
2023-05-25T11:34:53.864Z,25.20
2023-05-25T11:35:53.882Z,25.20
2023-05-25T11:36:53.836Z,25.18
2023-05-25T11:37:53.862Z,25.17
2023-05-25T11:39:04.729Z,25.16
2023-05-25T11:39:54.849Z,25.15
2023-05-25T11:40:53.820Z,25.14
2023-05-25T11:41:53.833Z,25.13
2023-05-25T11:42:53.823Z,25.12
2023-05-25T11:43:53.806Z,25.11
2023-05-25T11:44:53.824Z,25.10
2023-05-25T11:45:53.807Z,25.09
2023-05-25T11:46:53.880Z,25.08
2023-05-25T11:47:53.816Z,25.07
2023-05-25T11:48:53.810Z,25.06
2023-05-25T11:49:53.782Z,25.05
2023-05-25T11:50:53.777Z,25.05
2023-05-25T11:51:54.678Z,25.04
2023-05-25T11:52:53.758Z,25.04
2023-05-25T11:53:53.737Z,25.03
2023-05-25T11:54:53.750Z,25.02
2023-05-25T11:56:00.552Z,25.01
2023-05-25T11:56:54.723Z,25.01
2023-05-25T11:57:53.711Z,25.00
2023-05-25T11:58:53.725Z,25.00
2023-05-25T11:59:53.740Z,24.99
2023-05-25T12:00:53.705Z,24.98
2023-05-25T12:01:53.696Z,24.98
2023-05-25T12:02:53.782Z,24.97
2023-05-25T12:03:53.778Z,24.97
2023-05-25T12:04:53.709Z,24.97
2023-05-25T12:05:53.695Z,24.96
2023-05-25T12:06:53.673Z,24.95
2023-05-25T12:07:53.642Z,24.96
2023-05-25T12:08:53.657Z,24.95
2023-05-25T12:09:53.660Z,24.94
2023-05-25T12:10:53.618Z,24.94
2023-05-25T12:11:53.643Z,24.95
2023-05-25T12:12:53.605Z,24.94
2023-05-25T12:13:53.596Z,24.94
2023-05-25T12:14:53.590Z,24.93
2023-05-25T12:15:53.586Z,24.93
2023-05-25T12:16:53.642Z,24.92
2023-05-25T12:17:53.642Z,24.92
2023-05-25T12:18:53.572Z,24.91
2023-05-25T12:19:53.621Z,24.91
2023-05-25T12:20:53.658Z,24.91
2023-05-25T12:21:53.590Z,24.91
2023-05-25T12:22:53.613Z,24.90
2023-05-25T12:23:53.539Z,24.91
2023-05-25T12:24:53.527Z,24.90
2023-05-25T12:25:53.664Z,24.89
2023-05-25T12:26:53.575Z,24.90
2023-05-25T12:27:53.589Z,24.90
2023-05-25T12:28:53.600Z,24.90
2023-05-25T12:29:53.600Z,24.90
2023-05-25T12:30:53.666Z,24.90
2023-05-25T12:31:53.614Z,24.90
2023-05-25T12:32:53.706Z,24.91
2023-05-25T12:33:53.649Z,24.92
2023-05-25T12:34:53.678Z,24.93
2023-05-25T12:35:53.669Z,24.93
2023-05-25T12:36:53.683Z,24.94
2023-05-25T12:37:53.685Z,24.94
2023-05-25T12:38:53.704Z,24.94
2023-05-25T12:39:53.701Z,24.94
2023-05-25T12:40:53.722Z,24.94
2023-05-25T12:41:55.030Z,24.94
2023-05-25T12:42:53.735Z,24.95
2023-05-25T12:43:53.776Z,24.95
2023-05-25T12:44:53.798Z,24.95
2023-05-25T12:45:53.818Z,24.95
2023-05-25T12:46:53.843Z,24.96
2023-05-25T12:47:53.821Z,24.97
2023-05-25T12:48:53.808Z,24.98
2023-05-25T12:49:53.832Z,24.95
2023-05-25T12:50:53.835Z,24.96
2023-05-25T12:51:53.857Z,24.96
2023-05-25T12:52:53.855Z,24.96
2023-05-25T12:53:53.873Z,24.96
2023-05-25T12:54:53.883Z,24.96